Airfield :







YOU CAN JOIN US ON...

 
LOGIN :

Register | Disclaimer

   EN    FR    IT 

 









Legend :    VFR   Marginal VFR   IFR   Intensive IFR   Very Intensive IFR
Visi :
Ceiling :
>= 8 km
>= 3000ft
5 to 8 km
1000 to 3000 ft
1500m to 5 km
500 to 1000 ft
800 to 1500m
200 to 500 ft
< 800m
< 200 ft
Symbols :   Thunderstorms  Fog  Heavy snow  Heavy precipitations  Wind > 20 kt






- Airport Elevation : 56 ft


KRKD - Knox County Regional

CURRENT METAR :
  • 021856Z AUTO 02012G23KT 6SM RA BR OVC013 07/06 A2941 RMK AO2 SLP960 P0007 T00720056

EXPIRED METARs :
  • 021756Z AUTO 36007G15KT 330V040 10SM -RA OVC013 06/05 A2943 RMK AO2 SLP965 P0017 60044 T00610050 10061 20039 58019
  • 021720Z AUTO 01009G15KT 340V050 6SM RA BR OVC013 06/05 A2945 RMK AO2 P0008
  • 021656Z AUTO VRB06KT 9SM RA OVC015 06/04 A2945 RMK AO2 SLP973 P0011 T00560044

TAF KRKD
Valid from the 02 at 18:00 until the 03 at 18:00 UTC


021726Z 0218/0318 36009G15KT 6SM -RA BR OVC015
FM022200 03020G32KT 2SM -RA BR OVC008
FM030500 02020G35KT 5SM RA OVC010 WS020/05050KT
FM031500 05016G25KT 5SM -SHRA BR OVC015 AMD LTD TO CLD VIS AND WIND



MET'MAP, your aeronautical weather chart ! - Copyright ORBIFLY December 2007 - Disclaimer

ORBIFLY MET'MAP TEAM :

Programming & Development : Alexandra Zaïnal
Concept & original design : Baudouin d'Aumeries
Assistance for programming : Marc-Olivier Méhu
Technical & hardware support : Manuel Goepfert

Contact : metmap@orbifly.com




SOURCES & CREDITS :

   NOAA